This is the latest recevied weather packets stored in our database for station/object NW1E. If no packets are shown the sender has not sent any weather packets the latest 10 day(s).
| Time | Temp. | Humidity | Pressure | Rain* | Wind** | Luminosity | Snow |
|---|---|---|---|---|---|---|---|
| 1777786406 | 23.33° C | 91% | 1013.8 hPa | 0 mm | - | 0 W/m² | - |
| 1777786107 | 23.33° C | 91% | 1013.8 hPa | 0 mm | - | 0 W/m² | - |
| 1777783085 | 22.78° C | 93% | 1014.1 hPa | 0.25 mm | - | 0 W/m² | - |
| 1777781585 | 22.78° C | 92% | 1014.2 hPa | 0.25 mm | - | 0 W/m² | - |
| 1777777082 | 22.78° C | 92% | 1013.2 hPa | 1.27 mm | - | 0 W/m² | - |
| 1777774852 | 23.33° C | 92% | 1013.1 hPa | 0.76 mm | - | 0 W/m² | - |
| 1777773469 | 23.33° C | 92% | 1013.2 hPa | 0 mm | - | 0 W/m² | - |
| 1777773170 | 23.33° C | 92% | 1013.1 hPa | 0 mm | - | 0 W/m² | - |
| 1777771368 | 23.33° C | 92% | 1012.5 hPa | 0 mm | - | 0 W/m² | - |
| 1777770455 | 23.33° C | 92% | 1012.2 hPa | 0.25 mm | - | 0 W/m² | - |
| 1777770325 | 22.78° C | 92% | 1012.3 hPa | 0.51 mm | - | 0 W/m² | - |
| 1777768347 | 22.78° C | 91% | 1012.3 hPa | 0.76 mm | - | 0 W/m² | - |
| 1777768048 | 22.78° C | 91% | 1012.3 hPa | 1.52 mm | - | 0 W/m² | - |
| 1777765341 | 23.89° C | 91% | 1012.3 hPa | 1.02 mm | - | 5 W/m² | - |
| 1777764726 | 23.89° C | 91% | 1012.3 hPa | 0.76 mm | - | 7 W/m² | - |
| 1777763823 | 23.89° C | 91% | 1012.5 hPa | 0 mm | - | 16 W/m² | - |
| 1777762924 | 23.89° C | 91% | 1012.3 hPa | 7.37 mm | - | 41 W/m² | - |
| 1777762622 | 23.89° C | 90% | 1012.2 hPa | 7.37 mm | - | 42 W/m² | - |
| 1777761915 | 23.89° C | 90% | 1012 hPa | 7.37 mm | - | 62 W/m² | - |
| 1777752363 | 31.11° C | 72% | 1010.5 hPa | 0 mm | - | 689 W/m² | - |
| 1777751422 | 30.56° C | 70% | 1010.7 hPa | 0 mm | - | 674 W/m² | - |
| 1777749965 | 31.11° C | 69% | 1010.8 hPa | 0 mm | - | 489 W/m² | - |
| 1777746363 | 31.11° C | 72% | 1011.7 hPa | 0 mm | - | 958 W/m² | - |
| 1777742457 | 31.11° C | 71% | 1011.8 hPa | 0 mm | - | 994 W/m² | - |
| 1777739435 | 31.67° C | 70% | 1011.9 hPa | 0 mm | - | 473 W/m² | - |
* Rain latest hour (hover to see other rain measurements)
** Current wind speed in m/s (hover to see current wind gust speed)